Suma — JM6252 — position and weather

sailwx.info

Track history (hours):
 
Tides and Currents Weather Stations Pressure Air Temp Water Temp Dewpoint Dewpoint Depression Visibility Wind Speed Wind Dir Waves Ship Positions

Suma

Last reported at 2017-Sep-15 07:00 UTC. Time now 2017-Sep-20 01:51 UTC.
Position N 34°36' E 135°04'.

Length 80 m; draft 4.5 m.

Type: Cargo ship. MMSI: 431600127.

Date/timePositionNaut miles runAvg speedWind from/ knotsBaromVisibWave heightAir tempDewpointWater temp
2017-Sep-15 07:00N 34°36' E 135°04'612.0
2017-Sep-15 06:30N 34°36' E 135°11'5 9.2
2017-Sep-15 06:00N 34°39' E 135°15'1 1.9
2017-Sep-15 05:30N 34°40' E 135°14'3 5.1
2017-Sep-15 05:00N 34°39' E 135°17'2 3.8
2017-Sep-15 04:30N 34°41' E 135°17'0 0.1
2017-Sep-15 03:59N 34°41' E 135°17'2 4.2
2017-Sep-15 03:30N 34°39' E 135°18'3 6.0
2017-Sep-15 03:00N 34°36' E 135°16'0 0.0
2017-Sep-15 02:30N 34°36' E 135°16'0 0.0
2017-Sep-15 02:00N 34°36' E 135°16'0 0.0
2017-Sep-15 01:30N 34°37' E 135°16'0 0.0
2017-Sep-15 01:00N 34°37' E 135°16'0 0.0
2017-Sep-15 00:30N 34°37' E 135°16'0 0.1
2017-Sep-15 00:00N 34°37' E 135°16'0 0.0
2017-Sep-14 23:30N 34°37' E 135°16'0 0.0
2017-Sep-14 23:00N 34°37' E 135°16'0 0.0
2017-Sep-14 22:30N 34°37' E 135°16'0 0.0
2017-Sep-14 22:00N 34°37' E 135°16'0 0.0
2017-Sep-14 21:30N 34°37' E 135°16'3 6.9
2017-Sep-14 21:00N 34°35' E 135°12'510.8
2017-Sep-14 20:30N 34°35' E 135°05'  
2017-Sep-08 10:21N 34°36' E 134°55'611.8
2017-Sep-08 09:48N 34°36' E 135°03'311.3
2017-Sep-08 09:30N 34°36' E 135°07'612.1
2017-Sep-08 09:00N 34°37' E 135°14'4 8.9
2017-Sep-08 08:30N 34°41' E 135°17'1 1.0
2017-Sep-08 08:00N 34°41' E 135°17'0 0.5
2017-Sep-08 07:30N 34°41' E 135°17'2 4.9
2017-Sep-08 07:00N 34°39' E 135°19'0 0.0
2017-Sep-08 06:30N 34°39' E 135°19'0 0.1
2017-Sep-08 06:00N 34°39' E 135°19'0 0.0
2017-Sep-08 05:30N 34°39' E 135°19'0 0.0
2017-Sep-08 05:00N 34°39' E 135°19'2 3.0
2017-Sep-08 04:30N 34°39' E 135°17'2 4.9
2017-Sep-08 04:00N 34°40' E 135°14'0 0.0
2017-Sep-08 03:28N 34°40' E 135°14'0 0.0
2017-Sep-08 03:00N 34°40' E 135°14'0 0.0
2017-Sep-08 02:30N 34°40' E 135°14'0 0.7
2017-Sep-08 02:00N 34°39' E 135°15'2 4.9
2017-Sep-08 01:30N 34°37' E 135°15'0 0.1
2017-Sep-08 01:00N 34°37' E 135°16'0 0.0
2017-Sep-08 00:29N 34°37' E 135°16'0 0.0
2017-Sep-07 23:59N 34°37' E 135°16'0 0.0
2017-Sep-07 23:30N 34°37' E 135°16'0 0.0
2017-Sep-07 23:00N 34°37' E 135°16'0 0.0
2017-Sep-07 22:30N 34°37' E 135°16'0 0.0
2017-Sep-07 22:00N 34°37' E 135°16'0 0.1
2017-Sep-07 21:30N 34°37' E 135°16'0 0.1
2017-Sep-07 21:00N 34°37' E 135°16'0 0.1
2017-Sep-07 20:30N 34°37' E 135°16'0 0.0
2017-Sep-07 20:00N 34°37' E 135°16'0 0.0
2017-Sep-07 19:30N 34°37' E 135°16'0 0.1
2017-Sep-07 19:00N 34°37' E 135°16'0 0.0
2017-Sep-07 18:30N 34°37' E 135°16'0 0.1
2017-Sep-07 18:00N 34°37' E 135°16'0 0.0
2017-Sep-07 17:30N 34°37' E 135°16'0 0.0
2017-Sep-07 17:00N 34°37' E 135°16'2 4.1
2017-Sep-07 16:30N 34°35' E 135°14'612.5
2017-Sep-07 16:00N 34°35' E 135°07'9 0.3
2017-Sep-06 08:37N 34°37' E 134°56'311.9
2017-Sep-06 08:23N 34°38' E 134°59'410.4
2017-Sep-06 08:00N 34°36' E 135°04'510.9
2017-Sep-06 07:30N 34°37' E 135°10'5 9.4
2017-Sep-06 07:01N 34°38' E 135°16'1 2.8
2017-Sep-06 06:30N 34°39' E 135°15'0 0.0
2017-Sep-06 06:00N 34°39' E 135°15'0 0.5
2017-Sep-06 05:30N 34°39' E 135°15'3 5.6
2017-Sep-06 05:01N 34°37' E 135°17'0 0.0
2017-Sep-06 04:23N 34°37' E 135°17'0 0.0
2017-Sep-06 04:00N 34°37' E 135°17'0 0.0
2017-Sep-06 03:30N 34°37' E 135°17'0 0.1
2017-Sep-06 03:00N 34°37' E 135°17'0 0.0
2017-Sep-06 02:30N 34°37' E 135°17'4 7.6
2017-Sep-06 02:01N 34°40' E 135°14'0 0.1
2017-Sep-06 01:30N 34°40' E 135°14'0 0.0
2017-Sep-06 01:01N 34°40' E 135°14'1 3.0
2017-Sep-06 00:30N 34°41' E 135°16'1 1.8
2017-Sep-06 00:01N 34°41' E 135°17'0 0.5
2017-Sep-05 23:31N 34°41' E 135°16'1 2.7
2017-Sep-05 23:01N 34°40' E 135°15'3 5.7
2017-Sep-05 22:31N 34°37' E 135°16'0 0.0
2017-Sep-05 22:00N 34°37' E 135°16'0 0.0
2017-Sep-05 21:31N 34°37' E 135°16'1 1.6
2017-Sep-05 21:00N 34°36' E 135°15'510.9
2017-Sep-05 20:31N 34°35' E 135°09'612.1
2017-Sep-05 20:00N 34°37' E 135°02'  
Track history (hours):
 
Tides and Currents Weather Stations Pressure Air Temp Water Temp Dewpoint Dewpoint Depression Visibility Wind Speed Wind Dir Waves Ship Positions

Suma

Last reported at 2017-Sep-15 07:00 UTC. Time now 2017-Sep-20 01:51 UTC.
Position N 34°36' E 135°04'.

Length 80 m; draft 4.5 m.

Type: Cargo ship. MMSI: 431600127.

Date/timePositionNaut miles runAvg speedWind from/ knotsBaromVisibWave heightAir tempDewpointWater temp
2017-Sep-15 07:00N 34°36' E 135°04'612.0
2017-Sep-15 06:30N 34°36' E 135°11'5 9.2
2017-Sep-15 06:00N 34°39' E 135°15'1 1.9
2017-Sep-15 05:30N 34°40' E 135°14'3 5.1
2017-Sep-15 05:00N 34°39' E 135°17'2 3.8
2017-Sep-15 04:30N 34°41' E 135°17'0 0.1
2017-Sep-15 03:59N 34°41' E 135°17'2 4.2
2017-Sep-15 03:30N 34°39' E 135°18'3 6.0
2017-Sep-15 03:00N 34°36' E 135°16'0 0.0
2017-Sep-15 02:30N 34°36' E 135°16'0 0.0
2017-Sep-15 02:00N 34°36' E 135°16'0 0.0
2017-Sep-15 01:30N 34°37' E 135°16'0 0.0
2017-Sep-15 01:00N 34°37' E 135°16'0 0.0
2017-Sep-15 00:30N 34°37' E 135°16'0 0.1
2017-Sep-15 00:00N 34°37' E 135°16'0 0.0
2017-Sep-14 23:30N 34°37' E 135°16'0 0.0
2017-Sep-14 23:00N 34°37' E 135°16'0 0.0
2017-Sep-14 22:30N 34°37' E 135°16'0 0.0
2017-Sep-14 22:00N 34°37' E 135°16'0 0.0
2017-Sep-14 21:30N 34°37' E 135°16'3 6.9
2017-Sep-14 21:00N 34°35' E 135°12'510.8
2017-Sep-14 20:30N 34°35' E 135°05'  
2017-Sep-08 10:21N 34°36' E 134°55'611.8
2017-Sep-08 09:48N 34°36' E 135°03'311.3
2017-Sep-08 09:30N 34°36' E 135°07'612.1
2017-Sep-08 09:00N 34°37' E 135°14'4 8.9
2017-Sep-08 08:30N 34°41' E 135°17'1 1.0
2017-Sep-08 08:00N 34°41' E 135°17'0 0.5
2017-Sep-08 07:30N 34°41' E 135°17'2 4.9
2017-Sep-08 07:00N 34°39' E 135°19'0 0.0
2017-Sep-08 06:30N 34°39' E 135°19'0 0.1
2017-Sep-08 06:00N 34°39' E 135°19'0 0.0
2017-Sep-08 05:30N 34°39' E 135°19'0 0.0
2017-Sep-08 05:00N 34°39' E 135°19'2 3.0
2017-Sep-08 04:30N 34°39' E 135°17'2 4.9
2017-Sep-08 04:00N 34°40' E 135°14'0 0.0
2017-Sep-08 03:28N 34°40' E 135°14'0 0.0
2017-Sep-08 03:00N 34°40' E 135°14'0 0.0
2017-Sep-08 02:30N 34°40' E 135°14'0 0.7
2017-Sep-08 02:00N 34°39' E 135°15'2 4.9
2017-Sep-08 01:30N 34°37' E 135°15'0 0.1
2017-Sep-08 01:00N 34°37' E 135°16'0 0.0
2017-Sep-08 00:29N 34°37' E 135°16'0 0.0
2017-Sep-07 23:59N 34°37' E 135°16'0 0.0
2017-Sep-07 23:30N 34°37' E 135°16'0 0.0
2017-Sep-07 23:00N 34°37' E 135°16'0 0.0
2017-Sep-07 22:30N 34°37' E 135°16'0 0.0
2017-Sep-07 22:00N 34°37' E 135°16'0 0.1
2017-Sep-07 21:30N 34°37' E 135°16'0 0.1
2017-Sep-07 21:00N 34°37' E 135°16'0 0.1
2017-Sep-07 20:30N 34°37' E 135°16'0 0.0
2017-Sep-07 20:00N 34°37' E 135°16'0 0.0
2017-Sep-07 19:30N 34°37' E 135°16'0 0.1
2017-Sep-07 19:00N 34°37' E 135°16'0 0.0
2017-Sep-07 18:30N 34°37' E 135°16'0 0.1
2017-Sep-07 18:00N 34°37' E 135°16'0 0.0
2017-Sep-07 17:30N 34°37' E 135°16'0 0.0
2017-Sep-07 17:00N 34°37' E 135°16'2 4.1
2017-Sep-07 16:30N 34°35' E 135°14'612.5
2017-Sep-07 16:00N 34°35' E 135°07'9 0.3
2017-Sep-06 08:37N 34°37' E 134°56'311.9
2017-Sep-06 08:23N 34°38' E 134°59'410.4
2017-Sep-06 08:00N 34°36' E 135°04'510.9
2017-Sep-06 07:30N 34°37' E 135°10'5 9.4
2017-Sep-06 07:01N 34°38' E 135°16'1 2.8
2017-Sep-06 06:30N 34°39' E 135°15'0 0.0
2017-Sep-06 06:00N 34°39' E 135°15'0 0.5
2017-Sep-06 05:30N 34°39' E 135°15'3 5.6
2017-Sep-06 05:01N 34°37' E 135°17'0 0.0
2017-Sep-06 04:23N 34°37' E 135°17'0 0.0
2017-Sep-06 04:00N 34°37' E 135°17'0 0.0
2017-Sep-06 03:30N 34°37' E 135°17'0 0.1
2017-Sep-06 03:00N 34°37' E 135°17'0 0.0
2017-Sep-06 02:30N 34°37' E 135°17'4 7.6
2017-Sep-06 02:01N 34°40' E 135°14'0 0.1
2017-Sep-06 01:30N 34°40' E 135°14'0 0.0
2017-Sep-06 01:01N 34°40' E 135°14'1 3.0
2017-Sep-06 00:30N 34°41' E 135°16'1 1.8
2017-Sep-06 00:01N 34°41' E 135°17'0 0.5
2017-Sep-05 23:31N 34°41' E 135°16'1 2.7
2017-Sep-05 23:01N 34°40' E 135°15'3 5.7
2017-Sep-05 22:31N 34°37' E 135°16'0 0.0
2017-Sep-05 22:00N 34°37' E 135°16'0 0.0
2017-Sep-05 21:31N 34°37' E 135°16'1 1.6
2017-Sep-05 21:00N 34°36' E 135°15'510.9
2017-Sep-05 20:31N 34°35' E 135°09'612.1
2017-Sep-05 20:00N 34°37' E 135°02'  

Dump ship's entire track history